createdAt,value
2022-07-29T00:00:03.501Z,101670.16
2022-07-29T00:00:33.925Z,101674.39
2022-07-29T00:01:04.348Z,101673.55
2022-07-29T00:01:34.767Z,101669.38
2022-07-29T00:02:05.187Z,101668.21
2022-07-29T00:02:35.686Z,101674.47
2022-07-29T00:03:06.177Z,101674.65
2022-07-29T00:03:36.642Z,101675.62
2022-07-29T00:04:10.705Z,101673.74
2022-07-29T00:04:41.180Z,101675.39
2022-07-29T00:05:11.594Z,101675.09
2022-07-29T00:05:42.019Z,101675.27
2022-07-29T00:06:12.446Z,101674.93
2022-07-29T00:06:42.859Z,101676.49
2022-07-29T00:07:13.279Z,101677.34
2022-07-29T00:07:44.358Z,101673.75
2022-07-29T00:08:14.780Z,101675.77
2022-07-29T00:08:45.198Z,101677.41
2022-07-29T00:09:15.618Z,101678.70
2022-07-29T00:09:51.796Z,101672.66
2022-07-29T00:10:21.369Z,101676.33
2022-07-29T00:10:51.796Z,101677.20
2022-07-29T00:11:22.214Z,101677.25
2022-07-29T00:11:52.631Z,101677.59
2022-07-29T00:12:26.181Z,101674.39
2022-07-29T00:12:57.204Z,101673.56
2022-07-29T00:13:32.315Z,101679.15
2022-07-29T00:14:02.948Z,101677.71
2022-07-29T00:14:33.368Z,101678.39
2022-07-29T00:15:03.801Z,101680.59
2022-07-29T00:15:34.220Z,101677.41
2022-07-29T00:16:05.256Z,101680.56
2022-07-29T00:16:35.830Z,101677.84
2022-07-29T00:17:06.241Z,101680.69
2022-07-29T00:17:36.663Z,101679.19
2022-07-29T00:18:07.081Z,101679.57
2022-07-29T00:18:37.501Z,101681.53
2022-07-29T00:19:08.116Z,101681.85
2022-07-29T00:19:38.479Z,101677.61
2022-07-29T00:20:08.911Z,101676.09
2022-07-29T00:20:39.333Z,101674.20
2022-07-29T00:21:09.750Z,101678.30
2022-07-29T00:21:40.169Z,101679.64
2022-07-29T00:22:10.591Z,101678.64
2022-07-29T00:22:41.011Z,101680.68
2022-07-29T00:23:13.698Z,101677.47
2022-07-29T00:23:44.153Z,101678.99
2022-07-29T00:24:14.780Z,101678.14
2022-07-29T00:24:45.349Z,101675.95
2022-07-29T00:25:15.783Z,101678.63
2022-07-29T00:25:46.202Z,101673.38
2022-07-29T00:26:16.620Z,101672.22
2022-07-29T00:26:47.055Z,101671.56
2022-07-29T00:27:17.474Z,101672.91
2022-07-29T00:27:47.894Z,101672.73
2022-07-29T00:28:18.312Z,101671.88
2022-07-29T00:28:48.730Z,101667.88
2022-07-29T00:29:33.444Z,101668.38
2022-07-29T00:29:54.471Z,101670.28
2022-07-29T00:30:24.900Z,101665.91
2022-07-29T00:30:55.323Z,101668.61
2022-07-29T00:31:25.831Z,101666.17
2022-07-29T00:31:56.275Z,101669.56
2022-07-29T00:32:26.662Z,101665.92
2022-07-29T00:32:57.084Z,101662.89
2022-07-29T00:33:27.501Z,101664.62
2022-07-29T00:33:57.923Z,101661.92
2022-07-29T00:34:28.343Z,101665.13
2022-07-29T00:34:58.774Z,101664.12
2022-07-29T00:35:29.193Z,101660.53
2022-07-29T00:35:59.617Z,101661.54
2022-07-29T00:36:30.037Z,101660.55
2022-07-29T00:37:00.458Z,101660.41
2022-07-29T00:37:30.876Z,101660.25
2022-07-29T00:38:02.117Z,101659.84
2022-07-29T00:38:32.543Z,101663.02
2022-07-29T00:39:02.965Z,101659.48
2022-07-29T00:39:33.385Z,101659.50
2022-07-29T00:40:03.812Z,101660.03
2022-07-29T00:40:34.231Z,101659.88
2022-07-29T00:41:04.651Z,101662.12
2022-07-29T00:41:35.073Z,101658.97
2022-07-29T00:42:05.489Z,101659.97
2022-07-29T00:42:35.912Z,101655.36
2022-07-29T00:43:06.330Z,101658.83
2022-07-29T00:43:36.750Z,101656.14
2022-07-29T00:44:07.170Z,101655.80
2022-07-29T00:44:37.618Z,101657.85
2022-07-29T00:45:08.012Z,101659.05
2022-07-29T00:45:38.433Z,101660.38
2022-07-29T00:46:08.855Z,101662.09
2022-07-29T00:46:39.363Z,101657.16
2022-07-29T00:47:09.793Z,101659.00
2022-07-29T00:47:40.218Z,101660.02
2022-07-29T00:48:10.642Z,101660.19
2022-07-29T00:48:41.128Z,101660.22
2022-07-29T00:49:11.582Z,101662.09
2022-07-29T00:49:42.048Z,101662.27
2022-07-29T00:50:12.473Z,101660.34
2022-07-29T00:50:42.889Z,101665.77
2022-07-29T00:51:13.314Z,101663.59
2022-07-29T00:51:43.734Z,101664.12
2022-07-29T00:52:16.952Z,101664.47
2022-07-29T00:52:47.620Z,101663.62
2022-07-29T00:53:18.045Z,101661.44
2022-07-29T00:53:48.469Z,101661.27
2022-07-29T00:54:19.376Z,101660.75
2022-07-29T00:54:49.892Z,101657.73
2022-07-29T00:55:20.315Z,101657.72
2022-07-29T00:55:50.737Z,101658.91
2022-07-29T00:56:22.811Z,101659.41
2022-07-29T00:56:53.233Z,101656.84
2022-07-29T00:57:23.652Z,101656.39
2022-07-29T00:57:54.083Z,101656.59
2022-07-29T00:58:24.505Z,101657.95
2022-07-29T00:58:54.923Z,101655.59
2022-07-29T00:59:25.344Z,101656.59
2022-07-29T01:00:00.682Z,101655.45
2022-07-29T01:00:31.180Z,101657.62
2022-07-29T01:01:01.680Z,101656.99
2022-07-29T01:01:32.062Z,101653.62
2022-07-29T01:02:02.570Z,101656.30
2022-07-29T01:02:33.138Z,101654.26
2022-07-29T01:03:03.546Z,101653.64
2022-07-29T01:03:35.083Z,101653.80
2022-07-29T01:04:05.508Z,101652.62
2022-07-29T01:04:35.927Z,101655.33
2022-07-29T01:05:06.361Z,101650.70
2022-07-29T01:05:50.395Z,101655.53
2022-07-29T01:06:12.104Z,101655.06
2022-07-29T01:06:42.521Z,101652.04
2022-07-29T01:07:12.940Z,101651.89
2022-07-29T01:07:43.377Z,101651.92
2022-07-29T01:08:13.797Z,101649.39
2022-07-29T01:08:44.226Z,101652.58
2022-07-29T01:09:14.648Z,101650.39
2022-07-29T01:09:45.837Z,101649.54
2022-07-29T01:10:16.875Z,101651.44
2022-07-29T01:10:47.295Z,101646.89
2022-07-29T01:11:17.715Z,101649.08
2022-07-29T01:11:48.137Z,101648.56
2022-07-29T01:12:18.561Z,101651.12
2022-07-29T01:12:48.977Z,101649.43
2022-07-29T01:13:19.396Z,101651.05
2022-07-29T01:13:49.816Z,101647.47
2022-07-29T01:14:20.235Z,101646.30
2022-07-29T01:14:50.654Z,101642.75
2022-07-29T01:15:21.084Z,101649.34
2022-07-29T01:15:51.618Z,101644.14
2022-07-29T01:16:22.118Z,101647.56
2022-07-29T01:16:52.535Z,101646.55
2022-07-29T01:17:22.957Z,101642.72
2022-07-29T01:17:53.931Z,101647.05
2022-07-29T01:18:24.354Z,101646.38
2022-07-29T01:18:54.744Z,101645.79
2022-07-29T01:19:25.161Z,101647.27
2022-07-29T01:19:55.589Z,101646.30
2022-07-29T01:20:31.299Z,101643.63
2022-07-29T01:21:01.333Z,101641.47
2022-07-29T01:21:31.751Z,101640.48
2022-07-29T01:22:02.172Z,101643.32
2022-07-29T01:22:32.592Z,101642.45
2022-07-29T01:23:03.023Z,101639.80
2022-07-29T01:23:33.442Z,101639.97
2022-07-29T01:24:03.866Z,101637.58
2022-07-29T01:24:34.297Z,101639.08
2022-07-29T01:25:04.720Z,101635.22
2022-07-29T01:25:35.139Z,101636.60
2022-07-29T01:26:05.904Z,101633.55
2022-07-29T01:26:36.289Z,101634.05
2022-07-29T01:27:06.740Z,101634.69
2022-07-29T01:27:38.783Z,101630.52
2022-07-29T01:28:09.713Z,101628.69
2022-07-29T01:28:42.148Z,101629.67
2022-07-29T01:29:13.010Z,101629.85
2022-07-29T01:29:43.424Z,101630.67
2022-07-29T01:30:16.242Z,101627.34
2022-07-29T01:30:46.865Z,101629.25
2022-07-29T01:31:23.787Z,101631.08
2022-07-29T01:31:59.098Z,101624.80
2022-07-29T01:32:29.464Z,101623.62
2022-07-29T01:32:59.990Z,101623.31
2022-07-29T01:33:30.410Z,101622.97
2022-07-29T01:34:00.842Z,101621.60
2022-07-29T01:34:31.249Z,101621.75
2022-07-29T01:35:01.677Z,101621.58
2022-07-29T01:35:32.098Z,101620.07
2022-07-29T01:36:02.516Z,101618.76
2022-07-29T01:36:32.937Z,101616.38
2022-07-29T01:37:03.355Z,101615.83
2022-07-29T01:37:33.772Z,101612.31
2022-07-29T01:38:04.192Z,101616.19
2022-07-29T01:38:34.612Z,101613.16
2022-07-29T01:39:05.030Z,101609.68
2022-07-29T01:39:35.451Z,101607.84
2022-07-29T01:40:05.877Z,101608.64
2022-07-29T01:40:36.295Z,101605.14
2022-07-29T01:41:06.718Z,101603.95
2022-07-29T01:41:37.150Z,101597.88
2022-07-29T01:42:07.569Z,101599.23
2022-07-29T01:42:37.987Z,101595.63
2022-07-29T01:43:08.407Z,101593.59
2022-07-29T01:43:38.827Z,101587.55
2022-07-29T01:44:09.259Z,101586.06
2022-07-29T01:44:39.680Z,101587.27
2022-07-29T01:45:10.107Z,101579.52
2022-07-29T01:45:40.527Z,101577.48
2022-07-29T01:46:11.015Z,101577.67
2022-07-29T01:46:41.485Z,101581.23
2022-07-29T01:47:11.838Z,101573.68
2022-07-29T01:47:42.260Z,101573.47
2022-07-29T01:48:12.674Z,101573.66
2022-07-29T01:48:43.137Z,101575.36
2022-07-29T01:49:13.578Z,101571.31
2022-07-29T01:49:44.006Z,101573.52
2022-07-29T01:50:14.433Z,101567.80
2022-07-29T01:50:44.852Z,101570.45
2022-07-29T01:51:15.272Z,101569.10
2022-07-29T01:51:45.694Z,101564.55
2022-07-29T01:52:16.114Z,101562.70
2022-07-29T01:52:49.814Z,101565.36
2022-07-29T01:53:20.234Z,101562.02
2022-07-29T01:53:50.653Z,101562.88
2022-07-29T01:54:21.076Z,101558.12
2022-07-29T01:54:51.493Z,101562.89
2022-07-29T01:55:21.930Z,101562.91
2022-07-29T01:55:52.459Z,101560.02
2022-07-29T01:56:22.813Z,101564.09
2022-07-29T01:56:53.237Z,101564.06
2022-07-29T01:57:23.656Z,101566.22
2022-07-29T01:57:54.074Z,101561.36
2022-07-29T01:58:24.493Z,101565.56
2022-07-29T01:58:54.912Z,101564.23
2022-07-29T01:59:25.328Z,101563.54
2022-07-29T01:59:55.747Z,101560.66
2022-07-29T02:00:26.512Z,101560.70
2022-07-29T02:00:56.929Z,101562.84
2022-07-29T02:01:27.383Z,101561.64
2022-07-29T02:01:57.820Z,101557.92
2022-07-29T02:02:28.195Z,101559.03
2022-07-29T02:02:58.618Z,101556.19
2022-07-29T02:03:29.035Z,101562.55
2022-07-29T02:03:59.457Z,101560.37
2022-07-29T02:04:30.450Z,101558.22
2022-07-29T02:05:00.967Z,101561.97
2022-07-29T02:05:31.480Z,101559.62
2022-07-29T02:06:01.875Z,101557.80
2022-07-29T02:06:32.294Z,101562.35
2022-07-29T02:07:02.736Z,101563.22
2022-07-29T02:07:33.148Z,101562.35
2022-07-29T02:08:03.570Z,101560.38
2022-07-29T02:08:33.990Z,101561.73
2022-07-29T02:09:04.411Z,101557.91
2022-07-29T02:09:38.860Z,101558.89
2022-07-29T02:10:09.286Z,101558.07
2022-07-29T02:10:39.704Z,101559.06
2022-07-29T02:11:10.123Z,101558.00
2022-07-29T02:11:40.544Z,101559.69
2022-07-29T02:12:10.965Z,101558.69
2022-07-29T02:12:41.384Z,101560.83
2022-07-29T02:13:11.800Z,101560.63
2022-07-29T02:13:42.219Z,101557.61
2022-07-29T02:14:12.970Z,101562.53
2022-07-29T02:14:43.532Z,101560.80
2022-07-29T02:15:13.964Z,101564.50
2022-07-29T02:15:45.848Z,101561.80
2022-07-29T02:16:16.369Z,101564.50
2022-07-29T02:16:46.766Z,101562.31
2022-07-29T02:17:17.187Z,101564.36
2022-07-29T02:17:47.605Z,101565.73
2022-07-29T02:18:18.026Z,101561.39
2022-07-29T02:18:48.450Z,101564.92
2022-07-29T02:19:19.126Z,101562.23
2022-07-29T02:19:49.551Z,101562.56
2022-07-29T02:20:19.990Z,101565.09
2022-07-29T02:20:50.407Z,101563.59
2022-07-29T02:21:20.825Z,101561.59
2022-07-29T02:21:51.244Z,101566.45
2022-07-29T02:22:21.667Z,101562.73
2022-07-29T02:22:52.085Z,101563.89
2022-07-29T02:23:22.504Z,101563.88
2022-07-29T02:23:52.926Z,101567.10
2022-07-29T02:24:23.349Z,101564.92
2022-07-29T02:24:53.768Z,101565.28
2022-07-29T02:25:24.194Z,101569.27
2022-07-29T02:25:54.619Z,101570.46
2022-07-29T02:26:25.032Z,101574.80
2022-07-29T02:26:55.450Z,101574.50
2022-07-29T02:27:25.869Z,101573.66
2022-07-29T02:27:56.287Z,101577.59
2022-07-29T02:28:26.714Z,101573.23
2022-07-29T02:28:57.131Z,101577.81
2022-07-29T02:29:27.553Z,101574.48
2022-07-29T02:29:57.969Z,101574.77
2022-07-29T02:30:28.398Z,101575.78
2022-07-29T02:30:58.858Z,101579.98
2022-07-29T02:31:29.289Z,101577.45
2022-07-29T02:31:59.672Z,101575.27
2022-07-29T02:32:30.095Z,101577.12
2022-07-29T02:33:00.515Z,101575.06
2022-07-29T02:33:30.930Z,101578.47
2022-07-29T02:34:01.351Z,101578.05
2022-07-29T02:34:31.771Z,101580.30
2022-07-29T02:35:02.202Z,101576.94
2022-07-29T02:35:34.484Z,101579.31
2022-07-29T02:36:05.344Z,101581.20
2022-07-29T02:36:35.763Z,101576.30
2022-07-29T02:37:06.182Z,101572.44
2022-07-29T02:37:36.601Z,101570.09
2022-07-29T02:38:07.021Z,101574.75
2022-07-29T02:38:37.453Z,101571.39
2022-07-29T02:39:07.875Z,101572.41
2022-07-29T02:39:41.203Z,101572.09
2022-07-29T02:40:11.623Z,101570.09
2022-07-29T02:40:42.057Z,101572.98
2022-07-29T02:41:12.469Z,101571.62
2022-07-29T02:41:42.888Z,101573.80
2022-07-29T02:42:13.308Z,101573.83
2022-07-29T02:42:43.732Z,101569.41
2022-07-29T02:43:14.149Z,101569.73
2022-07-29T02:43:44.568Z,101569.27
2022-07-29T02:44:15.352Z,101570.44
2022-07-29T02:44:45.927Z,101570.80
2022-07-29T02:45:16.347Z,101571.12
2022-07-29T02:45:46.775Z,101572.32
2022-07-29T02:46:29.096Z,101570.14
2022-07-29T02:46:57.461Z,101573.36
2022-07-29T02:47:27.864Z,101572.32
2022-07-29T02:47:58.292Z,101577.02
2022-07-29T02:48:28.709Z,101575.05
2022-07-29T02:48:59.219Z,101574.39
2022-07-29T02:49:29.600Z,101576.23
2022-07-29T02:50:00.545Z,101575.21
2022-07-29T02:50:31.166Z,101577.72
2022-07-29T02:51:01.588Z,101578.89
2022-07-29T02:51:44.162Z,101580.59
2022-07-29T02:52:07.320Z,101580.95
2022-07-29T02:52:37.751Z,101581.45
2022-07-29T02:53:08.173Z,101579.42
2022-07-29T02:53:38.590Z,101579.62
2022-07-29T02:54:09.009Z,101580.61
2022-07-29T02:54:39.427Z,101580.55
2022-07-29T02:55:09.846Z,101580.05
2022-07-29T02:55:40.277Z,101579.22
2022-07-29T02:56:10.723Z,101578.58
2022-07-29T02:56:41.116Z,101574.55
2022-07-29T02:57:11.535Z,101575.55
2022-07-29T02:57:54.493Z,101578.44
2022-07-29T02:58:17.274Z,101574.06
2022-07-29T02:58:47.694Z,101571.69
2022-07-29T02:59:18.114Z,101569.50
2022-07-29T02:59:48.541Z,101571.02
2022-07-29T03:00:18.963Z,101572.86
2022-07-29T03:00:49.403Z,101568.16
2022-07-29T03:01:21.902Z,101572.19
2022-07-29T03:01:52.503Z,101575.23
2022-07-29T03:02:22.887Z,101568.48
2022-07-29T03:02:53.308Z,101572.37
2022-07-29T03:03:23.727Z,101571.38
2022-07-29T03:03:54.145Z,101571.38
2022-07-29T03:04:24.580Z,101571.67
2022-07-29T03:04:55.053Z,101569.65
2022-07-29T03:05:25.456Z,101568.98
2022-07-29T03:05:55.877Z,101570.03
2022-07-29T03:06:28.796Z,101569.81
2022-07-29T03:07:01.624Z,101569.36
2022-07-29T03:07:32.045Z,101574.06
2022-07-29T03:08:02.456Z,101571.17
2022-07-29T03:08:32.875Z,101566.62
2022-07-29T03:09:03.301Z,101566.97
2022-07-29T03:09:33.714Z,101568.63
2022-07-29T03:10:04.134Z,101569.45
2022-07-29T03:10:34.560Z,101566.95
2022-07-29T03:11:04.978Z,101568.31
2022-07-29T03:11:46.199Z,101570.67
2022-07-29T03:12:10.720Z,101565.94
2022-07-29T03:12:41.146Z,101565.98
2022-07-29T03:13:11.563Z,101567.14
2022-07-29T03:13:41.981Z,101569.33
2022-07-29T03:14:12.558Z,101568.64
2022-07-29T03:14:43.119Z,101565.98
2022-07-29T03:15:13.549Z,101569.31
2022-07-29T03:15:44.021Z,101568.31
2022-07-29T03:16:14.417Z,101564.25
2022-07-29T03:16:44.894Z,101569.14
2022-07-29T03:17:15.285Z,101570.66
2022-07-29T03:17:45.707Z,101569.19
2022-07-29T03:18:16.127Z,101569.70
2022-07-29T03:18:46.549Z,101568.33
2022-07-29T03:19:16.969Z,101568.80
2022-07-29T03:19:47.388Z,101564.75
2022-07-29T03:20:17.808Z,101566.80
2022-07-29T03:20:48.235Z,101565.95
2022-07-29T03:21:18.658Z,101565.79
2022-07-29T03:21:49.085Z,101563.61
2022-07-29T03:22:19.498Z,101566.97
2022-07-29T03:22:49.924Z,101566.12
2022-07-29T03:23:20.337Z,101565.77
2022-07-29T03:23:50.759Z,101566.11
2022-07-29T03:24:21.183Z,101566.78
2022-07-29T03:24:51.603Z,101563.63
2022-07-29T03:25:22.047Z,101563.11
2022-07-29T03:25:52.450Z,101560.95
2022-07-29T03:26:22.868Z,101564.33
2022-07-29T03:26:53.290Z,101563.80
2022-07-29T03:27:23.710Z,101561.61
2022-07-29T03:27:54.129Z,101560.75
2022-07-29T03:28:24.551Z,101567.69
2022-07-29T03:28:57.397Z,101560.12
2022-07-29T03:29:33.910Z,101566.01
2022-07-29T03:30:03.136Z,101564.45
2022-07-29T03:30:33.883Z,101558.20
2022-07-29T03:31:04.330Z,101561.40
2022-07-29T03:31:36.159Z,101557.50
2022-07-29T03:32:07.855Z,101557.69
2022-07-29T03:32:39.136Z,101560.21
2022-07-29T03:33:13.686Z,101558.56
2022-07-29T03:33:44.204Z,101556.56
2022-07-29T03:34:15.009Z,101557.46
2022-07-29T03:34:45.546Z,101556.50
2022-07-29T03:35:15.967Z,101556.98
2022-07-29T03:35:46.390Z,101554.47
2022-07-29T03:36:16.815Z,101552.30
2022-07-29T03:36:47.232Z,101554.14
2022-07-29T03:37:17.655Z,101551.91
2022-07-29T03:37:48.078Z,101546.19
2022-07-29T03:38:18.494Z,101552.59
2022-07-29T03:38:48.936Z,101547.22
2022-07-29T03:39:19.339Z,101549.22
2022-07-29T03:39:49.759Z,101544.97
2022-07-29T03:40:20.176Z,101546.27
2022-07-29T03:40:50.611Z,101544.24
2022-07-29T03:41:22.505Z,101545.93
2022-07-29T03:41:53.075Z,101545.13
2022-07-29T03:42:23.493Z,101548.88
2022-07-29T03:42:53.915Z,101548.72
2022-07-29T03:43:24.335Z,101548.73
2022-07-29T03:43:54.755Z,101542.31
2022-07-29T03:44:25.177Z,101544.33
2022-07-29T03:44:55.606Z,101545.34
2022-07-29T03:45:26.031Z,101545.19
2022-07-29T03:45:56.493Z,101541.97
2022-07-29T03:46:26.963Z,101539.14
2022-07-29T03:46:57.334Z,101541.12
2022-07-29T03:47:50.362Z,101543.45
2022-07-29T03:48:03.075Z,101546.28
2022-07-29T03:48:33.495Z,101544.25
2022-07-29T03:49:04.021Z,101545.91
2022-07-29T03:49:34.472Z,101540.52
2022-07-29T03:50:04.905Z,101540.80
2022-07-29T03:50:35.319Z,101538.98
2022-07-29T03:51:05.742Z,101542.86
2022-07-29T03:51:37.673Z,101540.02
2022-07-29T03:52:08.094Z,101536.83
2022-07-29T03:52:38.513Z,101531.34
2022-07-29T03:53:08.935Z,101535.39
2022-07-29T03:53:39.357Z,101536.11
2022-07-29T03:54:10.374Z,101535.58
2022-07-29T03:54:40.821Z,101536.41
2022-07-29T03:55:11.236Z,101534.34
2022-07-29T03:55:41.669Z,101539.39
2022-07-29T03:56:12.090Z,101538.18
2022-07-29T03:56:42.510Z,101537.01
2022-07-29T03:57:12.934Z,101541.40
2022-07-29T03:57:43.355Z,101540.71
2022-07-29T03:58:13.773Z,101541.55
2022-07-29T03:58:44.195Z,101541.22
2022-07-29T03:59:14.616Z,101542.05
2022-07-29T03:59:45.041Z,101541.22
2022-07-29T04:00:15.580Z,101541.23
2022-07-29T04:00:45.954Z,101544.05
2022-07-29T04:01:16.430Z,101540.67
2022-07-29T04:01:46.911Z,101539.95
2022-07-29T04:02:21.878Z,101538.43
2022-07-29T04:02:52.638Z,101539.95
2022-07-29T04:03:23.128Z,101539.52
2022-07-29T04:03:53.547Z,101540.70
2022-07-29T04:04:23.926Z,101542.22
2022-07-29T04:04:54.350Z,101543.69
2022-07-29T04:05:24.790Z,101541.02
2022-07-29T04:05:55.206Z,101541.52
2022-07-29T04:06:25.628Z,101543.01
2022-07-29T04:06:56.047Z,101539.64
2022-07-29T04:07:26.469Z,101541.31
2022-07-29T04:07:56.890Z,101544.17
2022-07-29T04:08:28.059Z,101542.34
2022-07-29T04:08:58.482Z,101545.75
2022-07-29T04:09:28.903Z,101545.94
2022-07-29T04:09:59.326Z,101542.91
2022-07-29T04:10:31.873Z,101545.76
2022-07-29T04:11:02.477Z,101546.45
2022-07-29T04:11:32.893Z,101549.80
2022-07-29T04:12:08.215Z,101545.91
2022-07-29T04:12:38.636Z,101548.45
2022-07-29T04:13:09.054Z,101548.30
2022-07-29T04:13:39.478Z,101545.58
2022-07-29T04:14:09.899Z,101548.59
2022-07-29T04:14:40.317Z,101547.28
2022-07-29T04:15:10.752Z,101547.40
2022-07-29T04:15:41.231Z,101550.64
2022-07-29T04:16:11.622Z,101548.55
2022-07-29T04:16:42.028Z,101549.73
2022-07-29T04:17:12.448Z,101548.27
2022-07-29T04:17:42.867Z,101545.23
2022-07-29T04:18:13.287Z,101549.80
2022-07-29T04:18:43.706Z,101551.33
2022-07-29T04:19:14.125Z,101555.39
2022-07-29T04:19:44.543Z,101557.09
2022-07-29T04:20:14.973Z,101558.38
2022-07-29T04:20:45.394Z,101554.20
2022-07-29T04:21:15.814Z,101553.88
2022-07-29T04:21:46.239Z,101556.02
2022-07-29T04:22:16.657Z,101560.41
2022-07-29T04:22:47.075Z,101560.77
2022-07-29T04:23:17.496Z,101561.61
2022-07-29T04:23:53.795Z,101558.41
2022-07-29T04:24:23.239Z,101563.77
2022-07-29T04:24:53.662Z,101566.30
2022-07-29T04:25:24.093Z,101564.44
2022-07-29T04:25:54.511Z,101565.94
2022-07-29T04:26:24.933Z,101564.09
2022-07-29T04:26:55.356Z,101562.44
2022-07-29T04:27:25.774Z,101563.23
2022-07-29T04:27:56.201Z,101564.95
2022-07-29T04:28:26.615Z,101564.27
2022-07-29T04:28:57.035Z,101561.56
2022-07-29T04:29:27.456Z,101563.42
2022-07-29T04:29:57.875Z,101566.80
2022-07-29T04:30:28.309Z,101559.36
2022-07-29T04:30:58.739Z,101554.81
2022-07-29T04:31:29.252Z,101556.48
2022-07-29T04:31:59.660Z,101555.47
2022-07-29T04:32:30.086Z,101558.73
2022-07-29T04:33:00.500Z,101556.90
2022-07-29T04:33:30.917Z,101554.20
2022-07-29T04:34:01.336Z,101558.58
2022-07-29T04:34:31.758Z,101557.25
2022-07-29T04:35:02.181Z,101555.22
2022-07-29T04:35:37.982Z,101553.52
2022-07-29T04:36:07.927Z,101557.79
2022-07-29T04:36:43.250Z,101555.73
2022-07-29T04:37:13.670Z,101556.73
2022-07-29T04:37:44.089Z,101553.03
2022-07-29T04:38:15.937Z,101553.16
2022-07-29T04:38:47.658Z,101558.39
2022-07-29T04:39:22.486Z,101555.47
2022-07-29T04:39:53.403Z,101557.04
2022-07-29T04:40:23.818Z,101554.84
2022-07-29T04:40:54.240Z,101557.55
2022-07-29T04:41:28.542Z,101557.16
2022-07-29T04:42:00.281Z,101550.94
2022-07-29T04:42:31.614Z,101552.62
2022-07-29T04:43:05.833Z,101549.91
2022-07-29T04:43:36.869Z,101552.61
2022-07-29T04:44:07.586Z,101551.42
2022-07-29T04:44:39.740Z,101556.16
2022-07-29T04:45:13.285Z,101553.11
2022-07-29T04:45:44.515Z,101554.66
2022-07-29T04:46:14.990Z,101554.45
2022-07-29T04:46:45.442Z,101555.64
2022-07-29T04:47:15.813Z,101556.17
2022-07-29T04:47:46.237Z,101557.48
2022-07-29T04:48:16.663Z,101565.26
2022-07-29T04:48:47.097Z,101559.03
2022-07-29T04:49:17.624Z,101559.52
2022-07-29T04:49:48.019Z,101560.38
2022-07-29T04:50:18.439Z,101564.95
2022-07-29T04:50:48.874Z,101560.04
2022-07-29T04:51:19.294Z,101562.92
2022-07-29T04:51:49.713Z,101562.75
2022-07-29T04:52:20.138Z,101562.39
2022-07-29T04:52:50.558Z,101561.06
2022-07-29T04:53:20.976Z,101563.09
2022-07-29T04:53:51.400Z,101564.95
2022-07-29T04:54:21.817Z,101562.39
2022-07-29T04:54:52.236Z,101564.61
2022-07-29T04:55:22.654Z,101562.06
2022-07-29T04:55:53.081Z,101566.96
2022-07-29T04:56:23.503Z,101565.78
2022-07-29T04:56:53.950Z,101562.75
2022-07-29T04:57:24.670Z,101565.44
2022-07-29T04:57:55.037Z,101566.12
2022-07-29T04:58:25.458Z,101566.28
2022-07-29T04:58:55.877Z,101564.25
2022-07-29T04:59:26.300Z,101561.58
2022-07-29T04:59:56.719Z,101562.77
2022-07-29T05:00:29.204Z,101562.77
2022-07-29T05:01:02.492Z,101560.38
2022-07-29T05:01:32.946Z,101559.86
2022-07-29T05:02:03.381Z,101559.03
2022-07-29T05:02:33.832Z,101562.23
2022-07-29T05:03:04.320Z,101557.17
2022-07-29T05:03:34.715Z,101558.02
2022-07-29T05:04:05.135Z,101555.98
2022-07-29T05:04:35.554Z,101558.66
2022-07-29T05:05:05.977Z,101553.62
2022-07-29T05:05:36.417Z,101554.62
2022-07-29T05:06:06.836Z,101553.78
2022-07-29T05:06:37.255Z,101557.78
2022-07-29T05:07:07.678Z,101554.91
2022-07-29T05:07:38.100Z,101553.11
2022-07-29T05:08:08.521Z,101554.59
2022-07-29T05:08:38.940Z,101557.25
2022-07-29T05:09:12.242Z,101553.69
2022-07-29T05:09:42.662Z,101558.06
2022-07-29T05:10:13.081Z,101559.69
2022-07-29T05:10:43.508Z,101557.16
2022-07-29T05:11:18.131Z,101558.38
2022-07-29T05:11:49.252Z,101558.89
2022-07-29T05:12:19.673Z,101557.22
2022-07-29T05:12:50.097Z,101557.88
2022-07-29T05:13:20.518Z,101556.32
2022-07-29T05:13:50.939Z,101555.27
2022-07-29T05:14:21.361Z,101558.62
2022-07-29T05:14:51.783Z,101554.23
2022-07-29T05:15:22.200Z,101553.89
2022-07-29T05:15:52.687Z,101554.69
2022-07-29T05:16:23.144Z,101556.62
2022-07-29T05:16:53.520Z,101554.20
2022-07-29T05:17:23.943Z,101549.98
2022-07-29T05:17:54.362Z,101549.83
2022-07-29T05:18:25.932Z,101553.48
2022-07-29T05:18:56.644Z,101550.07
2022-07-29T05:19:27.064Z,101548.20
2022-07-29T05:19:57.491Z,101549.49
2022-07-29T05:20:27.910Z,101550.14
2022-07-29T05:20:58.330Z,101549.61
2022-07-29T05:21:28.749Z,101550.44
2022-07-29T05:21:59.176Z,101553.67
2022-07-29T05:22:29.602Z,101550.14
2022-07-29T05:23:00.010Z,101547.26
2022-07-29T05:23:30.431Z,101549.94
2022-07-29T05:24:00.851Z,101550.27
2022-07-29T05:24:31.276Z,101549.05
2022-07-29T05:25:06.963Z,101551.27
2022-07-29T05:25:43.550Z,101549.77
2022-07-29T05:26:12.358Z,101547.58
2022-07-29T05:26:42.775Z,101548.75
2022-07-29T05:27:13.194Z,101550.27
2022-07-29T05:27:43.617Z,101545.03
2022-07-29T05:28:14.036Z,101548.27
2022-07-29T05:28:44.459Z,101549.41
2022-07-29T05:29:42.862Z,101546.69
2022-07-29T05:29:50.200Z,101545.87
2022-07-29T05:30:20.616Z,101548.27
2022-07-29T05:30:51.081Z,101544.77
2022-07-29T05:31:21.844Z,101545.11
2022-07-29T05:31:52.214Z,101547.16
2022-07-29T05:32:22.637Z,101540.73
2022-07-29T05:32:53.055Z,101545.77
2022-07-29T05:33:35.124Z,101544.77
2022-07-29T05:33:58.797Z,101545.08
2022-07-29T05:34:29.223Z,101544.94
2022-07-29T05:34:59.641Z,101542.91
2022-07-29T05:35:30.065Z,101543.94
2022-07-29T05:36:01.155Z,101545.95
2022-07-29T05:36:31.635Z,101545.26
2022-07-29T05:37:02.067Z,101543.94
2022-07-29T05:37:32.479Z,101546.11
2022-07-29T05:38:02.900Z,101540.91
2022-07-29T05:38:33.327Z,101542.66
2022-07-29T05:39:03.739Z,101542.50
2022-07-29T05:39:48.276Z,101543.03
2022-07-29T05:40:09.484Z,101542.56
2022-07-29T05:40:39.913Z,101540.09
2022-07-29T05:41:10.331Z,101544.83
2022-07-29T05:41:40.750Z,101540.28
2022-07-29T05:42:11.172Z,101540.78
2022-07-29T05:42:41.588Z,101539.28
2022-07-29T05:43:12.008Z,101539.89
2022-07-29T05:43:42.427Z,101542.25
2022-07-29T05:44:13.095Z,101541.91
2022-07-29T05:44:43.582Z,101541.09
2022-07-29T05:45:14.008Z,101541.58
2022-07-29T05:45:50.026Z,101539.39
2022-07-29T05:46:19.846Z,101538.71
2022-07-29T05:46:50.348Z,101542.27
2022-07-29T05:47:20.746Z,101541.26
2022-07-29T05:47:51.172Z,101542.62
2022-07-29T05:48:21.606Z,101544.12
2022-07-29T05:48:52.103Z,101546.14
2022-07-29T05:49:23.124Z,101547.16
2022-07-29T05:49:57.735Z,101546.64
2022-07-29T05:50:28.160Z,101551.88
2022-07-29T05:50:58.582Z,101550.17